首页
METAR-TAF:

METAR-TAF

机场 :

空军基地

Landivisiau, 法国

纬度: 48-31N, 经度: 004-09W, 海拔: 106米

当前天气观测

该预报发布于26分钟前的01:00 UTC
风速4节,风向东转东北
温度 12°C
湿度 88%
气压 1015 hPa
能见度10公里或以上
1500米以下无云,无积雨云

METAR: LFRJ 180100Z AUTO 06004KT CAVOK 12/10 Q1015

时间: 03:26 (01:26 UTC)

预报

该预报发布于11小时和26分钟前的14:00 UTC
预报有效从17日的 15点(UTC)到 17日的 24点(UTC)
风速8节,风向西转西南
能见度10公里或以上
少量云层高于3500英尺
短暂存在
从 17日的 15点(UTC)到 17日的 18点(UTC)
能见度10公里或以上
1500米以下无云,无积雨云
成为
从 17日的 18点(UTC)到 17日的 20点(UTC)
风速7节,风向东北

TAF: LFRJ 171400Z 1715/1724 24008KT 9999 FEW035 TEMPO 1715/1718 CAVOK BECMG 1718/1720 04007KT

超过4000个机场的气象观测和天气预报(METAR&TAF报告)。

可查询的气象台以黄色和红色小点在地图上表示。

将鼠标移到小点上方,可查看气象台名称。

然后点击查看天气观测和预报。

如需切换地图:点击带黑十字的绿色按钮放大地图;点击带横线的绿色按钮缩小地图;或者点击绿色箭头查看邻近地区的地图。


METAR-TAF: